createdAt,value
2018-09-04T00:01:33.087Z,97128.50
2018-09-04T00:04:09.758Z,97135.06
2018-09-04T00:06:47.960Z,97131.12
2018-09-04T00:09:21.864Z,97131.02
2018-09-04T00:14:46.173Z,97126.69
2018-09-04T00:17:29.027Z,97124.84
2018-09-04T00:20:06.642Z,97128.16
2018-09-04T00:22:46.862Z,97125.30
2018-09-04T00:25:26.640Z,97129.19
2018-09-04T00:28:06.534Z,97127.58
2018-09-04T00:30:48.802Z,97131.77
2018-09-04T00:33:19.024Z,97131.95
2018-09-04T00:35:49.456Z,97128.77
2018-09-04T00:38:20.977Z,97129.51
2018-09-04T00:40:52.681Z,97126.13
2018-09-04T00:43:23.381Z,97133.51
2018-09-04T00:45:58.347Z,97134.42
2018-09-04T00:48:29.268Z,97136.93
2018-09-04T00:51:01.348Z,97132.55
2018-09-04T00:53:31.058Z,97130.11
2018-09-04T00:56:02.875Z,97134.45
2018-09-04T00:58:33.542Z,97136.17
2018-09-04T01:01:04.744Z,97127.89
2018-09-04T01:03:35.632Z,97128.95
2018-09-04T01:06:07.924Z,97126.86
2018-09-04T01:08:41.921Z,97124.16
2018-09-04T01:11:12.468Z,97128.31
2018-09-04T01:13:48.945Z,97127.21
2018-09-04T01:16:23.900Z,97131.75
2018-09-04T01:18:56.149Z,97127.98
2018-09-04T01:21:27.263Z,97129.56
2018-09-04T01:23:58.575Z,97122.59
2018-09-04T01:26:28.611Z,97125.53
2018-09-04T01:28:58.646Z,97124.54
2018-09-04T01:31:46.259Z,97122.64
2018-09-04T01:34:29.318Z,97122.09
2018-09-04T01:37:04.782Z,97122.92
2018-09-04T01:39:37.999Z,97128.80
2018-09-04T01:42:21.233Z,97133.11
2018-09-04T01:45:02.436Z,97130.34
2018-09-04T01:47:37.703Z,97131.10
2018-09-04T01:50:16.135Z,97135.23
2018-09-04T01:52:53.311Z,97131.59
2018-09-04T01:55:34.645Z,97127.95
2018-09-04T01:58:21.012Z,97127.58
2018-09-04T02:00:55.250Z,97127.46
2018-09-04T02:03:27.177Z,97118.34
2018-09-04T02:06:06.333Z,97121.55
2018-09-04T02:08:43.173Z,97119.89
2018-09-04T02:11:19.298Z,97115.64
2018-09-04T02:13:55.536Z,97112.63
2018-09-04T02:16:38.877Z,97111.05
2018-09-04T02:19:15.232Z,97107.05
2018-09-04T02:21:50.156Z,97104.67
2018-09-04T02:24:30.408Z,97103.16
2018-09-04T02:27:09.965Z,97101.27
2018-09-04T02:29:49.162Z,97095.33
2018-09-04T02:32:30.280Z,97089.05
2018-09-04T02:35:07.890Z,97096.55
2018-09-04T02:37:47.048Z,97099.56
2018-09-04T02:43:10.653Z,97098.99
2018-09-04T02:45:46.633Z,97093.45
2018-09-04T02:48:28.503Z,97083.28
2018-09-04T02:51:08.446Z,97081.58
2018-09-04T02:53:46.664Z,97081.67
2018-09-04T02:56:25.362Z,97084.63
2018-09-04T02:59:09.896Z,97077.16
2018-09-04T03:01:51.111Z,97074.05
2018-09-04T03:04:38.659Z,97081.50
2018-09-04T03:07:16.113Z,97085.08
2018-09-04T03:12:31.112Z,97084.67
2018-09-04T03:15:06.718Z,97087.91
2018-09-04T03:17:47.755Z,97085.43
2018-09-04T03:23:00.440Z,97085.25
2018-09-04T03:25:29.948Z,97090.02
2018-09-04T03:28:00.714Z,97088.56
2018-09-04T03:30:32.483Z,97087.31
2018-09-04T03:33:04.393Z,97087.13
2018-09-04T03:35:35.103Z,97092.55
2018-09-04T03:38:05.596Z,97091.72
2018-09-04T03:40:37.112Z,97097.48
2018-09-04T03:43:09.704Z,97099.65
2018-09-04T03:45:41.942Z,97102.92
2018-09-04T03:48:15.304Z,97110.33
2018-09-04T03:50:48.776Z,97110.52
2018-09-04T03:53:20.968Z,97104.98
2018-09-04T03:55:52.470Z,97104.23
2018-09-04T03:58:25.002Z,97101.50
2018-09-04T04:00:56.956Z,97101.82
2018-09-04T04:03:29.610Z,97105.05
2018-09-04T04:06:01.952Z,97104.48
2018-09-04T04:13:45.984Z,97104.48
2018-09-04T04:16:21.035Z,97105.20
2018-09-04T04:18:54.436Z,97112.90
2018-09-04T04:21:27.616Z,97113.82
2018-09-04T04:26:40.230Z,97115.16
2018-09-04T04:29:14.236Z,97105.27
2018-09-04T04:31:45.381Z,97101.83
2018-09-04T04:34:19.276Z,97100.84
2018-09-04T04:36:49.256Z,97105.66
2018-09-04T04:39:21.075Z,97106.80
2018-09-04T04:41:54.507Z,97104.63
2018-09-04T04:44:27.845Z,97105.84
2018-09-04T04:47:02.795Z,97108.47
2018-09-04T04:49:35.815Z,97108.09
2018-09-04T04:52:11.962Z,97112.63
2018-09-04T04:54:42.861Z,97107.73
2018-09-04T04:57:15.354Z,97107.21
2018-09-04T04:59:47.848Z,97112.30
2018-09-04T05:02:20.362Z,97115.77
2018-09-04T05:04:54.492Z,97120.27
2018-09-04T05:10:05.925Z,97116.92
2018-09-04T05:12:37.339Z,97114.29
2018-09-04T05:15:09.708Z,97115.13
2018-09-04T05:17:40.664Z,97114.77
2018-09-04T05:20:16.823Z,97118.28
2018-09-04T05:22:50.395Z,97114.95
2018-09-04T05:25:22.384Z,97120.64
2018-09-04T05:27:53.177Z,97119.52
2018-09-04T05:30:31.963Z,97119.06
2018-09-04T05:33:09.020Z,97113.33
2018-09-04T05:35:47.842Z,97119.86
2018-09-04T05:38:22.749Z,97131.86
2018-09-04T05:40:56.490Z,97157.31
2018-09-04T05:43:41.861Z,97166.91
2018-09-04T05:46:18.156Z,97169.84
2018-09-04T05:48:53.678Z,97170.20
2018-09-04T05:51:25.609Z,97174.78
2018-09-04T05:53:59.184Z,97167.72
2018-09-04T05:56:32.584Z,97172.52
2018-09-04T05:59:04.958Z,97176.68
2018-09-04T06:01:46.882Z,97176.42
2018-09-04T06:04:25.409Z,97176.80
2018-09-04T06:07:01.426Z,97179.47
2018-09-04T06:09:40.161Z,97189.44
2018-09-04T06:12:14.662Z,97182.25
2018-09-04T06:14:45.902Z,97187.72
2018-09-04T06:17:23.540Z,97178.43
2018-09-04T06:22:49.034Z,97185.37
2018-09-04T06:25:28.772Z,97175.10
2018-09-04T06:28:11.778Z,97176.17
2018-09-04T06:30:48.079Z,97167.89
2018-09-04T06:33:28.794Z,97167.33
2018-09-04T06:36:10.718Z,97172.39
2018-09-04T06:38:50.347Z,97166.93
2018-09-04T06:41:28.269Z,97163.58
2018-09-04T06:44:03.754Z,97156.85
2018-09-04T06:46:42.039Z,97162.48
2018-09-04T06:49:24.762Z,97156.37
2018-09-04T06:52:07.756Z,97160.20
2018-09-04T06:54:42.739Z,97160.22
2018-09-04T06:57:19.410Z,97156.70
2018-09-04T06:59:55.550Z,97153.77
2018-09-04T07:02:42.383Z,97154.06
2018-09-04T07:05:20.836Z,97157.53
2018-09-04T07:07:57.535Z,97155.91
2018-09-04T07:10:35.623Z,97161.53
2018-09-04T07:13:16.642Z,97160.76
2018-09-04T07:15:54.635Z,97163.17
2018-09-04T07:18:32.147Z,97166.33
2018-09-04T07:21:11.366Z,97163.66
2018-09-04T07:26:32.242Z,97153.20
2018-09-04T07:29:09.247Z,97155.02
2018-09-04T07:31:46.082Z,97152.08
2018-09-04T07:34:18.690Z,97151.56
2018-09-04T07:36:56.784Z,97152.11
2018-09-04T07:39:32.251Z,97149.70
2018-09-04T07:42:09.658Z,97150.20
2018-09-04T07:44:43.885Z,97153.72
2018-09-04T07:47:20.597Z,97152.91
2018-09-04T07:49:58.414Z,97151.84
2018-09-04T07:52:38.506Z,97159.86
2018-09-04T07:55:14.761Z,97152.36
2018-09-04T08:00:37.416Z,97149.43
2018-09-04T08:03:10.684Z,97145.64
2018-09-04T08:05:46.303Z,97143.25
2018-09-04T08:08:24.527Z,97140.81
2018-09-04T08:11:01.796Z,97144.31
2018-09-04T08:13:41.536Z,97134.80
2018-09-04T08:16:27.620Z,97141.30
2018-09-04T08:19:06.387Z,97133.32
2018-09-04T08:21:45.459Z,97134.80
2018-09-04T08:24:22.474Z,97136.05
2018-09-04T08:26:57.940Z,97136.62
2018-09-04T08:29:33.101Z,97130.14
2018-09-04T08:32:08.731Z,97126.44
2018-09-04T08:34:44.152Z,97123.50
2018-09-04T08:37:20.174Z,97134.07
2018-09-04T08:40:06.736Z,97131.12
2018-09-04T08:42:45.232Z,97137.41
2018-09-04T08:45:23.589Z,97133.70
2018-09-04T08:48:01.753Z,97137.91
2018-09-04T08:50:34.815Z,97134.95
2018-09-04T08:53:13.488Z,97143.52
2018-09-04T08:55:52.929Z,97137.94
2018-09-04T08:58:29.540Z,97137.71
2018-09-04T09:01:04.583Z,97133.08
2018-09-04T09:03:41.614Z,97134.30
2018-09-04T09:06:20.714Z,97138.48
2018-09-04T09:08:56.916Z,97134.67
2018-09-04T09:11:33.743Z,97132.56
2018-09-04T09:14:12.968Z,97133.18
2018-09-04T09:16:48.853Z,97128.97
2018-09-04T09:19:25.691Z,97127.64
2018-09-04T09:22:03.674Z,97118.36
2018-09-04T09:24:40.496Z,97119.87
2018-09-04T09:27:15.532Z,97120.14
2018-09-04T09:29:48.323Z,97119.25
2018-09-04T09:32:25.555Z,97117.31
2018-09-04T09:35:07.347Z,97122.25
2018-09-04T09:37:47.349Z,97122.13
2018-09-04T09:40:26.829Z,97128.50
2018-09-04T09:43:09.281Z,97124.55
2018-09-04T09:45:47.684Z,97127.90
2018-09-04T09:48:30.645Z,97125.05
2018-09-04T09:51:07.078Z,97118.55
2018-09-04T09:53:48.590Z,97115.63
2018-09-04T09:56:32.935Z,97113.84
2018-09-04T10:04:19.534Z,97102.73
2018-09-04T10:07:05.720Z,97099.94
2018-09-04T10:09:47.972Z,97096.34
2018-09-04T10:17:54.993Z,97093.42
2018-09-04T10:20:31.241Z,97091.46
2018-09-04T10:23:09.146Z,97094.32
2018-09-04T10:25:42.491Z,97093.72
2018-09-04T10:28:13.919Z,97094.20
2018-09-04T10:30:45.121Z,97093.86
2018-09-04T10:33:17.969Z,97092.73
2018-09-04T10:35:56.414Z,97085.64
2018-09-04T10:38:28.326Z,97090.83
2018-09-04T10:41:04.659Z,97093.09
2018-09-04T10:43:43.054Z,97086.12
2018-09-04T10:46:25.793Z,97083.75
2018-09-04T10:49:12.181Z,97085.65
2018-09-04T10:51:52.321Z,97079.77
2018-09-04T10:54:38.010Z,97086.92
2018-09-04T10:57:17.836Z,97092.62
2018-09-04T11:02:04.564Z,97087.41
2018-09-04T11:07:08.485Z,97082.81
2018-09-04T11:09:39.044Z,97078.16
2018-09-04T11:14:40.116Z,97078.50
2018-09-04T11:17:09.133Z,97076.28
2018-09-04T11:19:36.268Z,97074.01
2018-09-04T11:22:05.902Z,97068.01
2018-09-04T11:24:35.487Z,97077.91
2018-09-04T11:27:03.649Z,97067.06
2018-09-04T11:29:32.069Z,97074.02
2018-09-04T11:32:00.889Z,97073.64
2018-09-04T11:34:29.800Z,97069.16
2018-09-04T11:36:57.658Z,97075.43
2018-09-04T11:39:25.835Z,97072.66
2018-09-04T11:41:54.455Z,97071.44
2018-09-04T11:44:22.229Z,97071.77
2018-09-04T11:49:22.201Z,97064.05
2018-09-04T11:51:52.218Z,97067.31
2018-09-04T11:54:23.214Z,97060.19
2018-09-04T11:56:50.141Z,97058.27
2018-09-04T11:59:22.483Z,97064.73
2018-09-04T12:01:51.720Z,97066.89
2018-09-04T12:04:20.000Z,97066.67
2018-09-04T12:06:49.852Z,97057.17
2018-09-04T12:09:17.656Z,97059.52
2018-09-04T12:11:46.807Z,97062.27
2018-09-04T12:16:45.877Z,97062.42
2018-09-04T12:19:15.031Z,97058.52
2018-09-04T12:21:42.876Z,97060.36
2018-09-04T12:24:09.887Z,97068.29
2018-09-04T12:26:37.434Z,97062.48
2018-09-04T12:29:04.802Z,97063.06
2018-09-04T12:31:32.109Z,97067.69
2018-09-04T12:34:02.038Z,97064.27
2018-09-04T12:36:30.859Z,97065.77
2018-09-04T12:38:58.244Z,97065.73
2018-09-04T12:41:27.196Z,97065.64
2018-09-04T12:43:54.169Z,97066.59
2018-09-04T12:46:23.634Z,97066.13
2018-09-04T12:48:50.783Z,97058.29
2018-09-04T12:51:18.482Z,97058.72
2018-09-04T12:53:50.114Z,97055.18
2018-09-04T12:56:17.359Z,97051.50
2018-09-04T12:58:45.963Z,97050.39
2018-09-04T13:01:12.956Z,97049.98
2018-09-04T13:03:39.470Z,97047.41
2018-09-04T13:06:05.937Z,97044.22
2018-09-04T13:08:33.311Z,97041.73
2018-09-04T13:11:00.574Z,97039.39
2018-09-04T13:13:27.612Z,97041.15
2018-09-04T13:15:54.120Z,97035.25
2018-09-04T13:18:21.197Z,97042.02
2018-09-04T13:20:47.821Z,97040.72
2018-09-04T13:23:14.740Z,97043.61
2018-09-04T13:25:42.064Z,97047.81
2018-09-04T13:28:08.653Z,97052.22
2018-09-04T13:30:35.788Z,97055.33
2018-09-04T13:33:03.195Z,97051.45
2018-09-04T13:35:30.423Z,97048.81
2018-09-04T13:37:57.051Z,97048.92
2018-09-04T13:40:24.403Z,97048.00
2018-09-04T13:42:51.764Z,97045.34
2018-09-04T13:45:19.041Z,97045.30
2018-09-04T13:47:47.163Z,97049.27
2018-09-04T13:50:13.924Z,97047.37
2018-09-04T13:52:42.405Z,97046.20
2018-09-04T13:55:09.493Z,97048.59
2018-09-04T13:57:36.263Z,97056.12
2018-09-04T14:00:02.956Z,97055.70
2018-09-04T14:02:29.541Z,97056.34
2018-09-04T14:04:56.566Z,97049.63
2018-09-04T14:07:23.129Z,97064.06
2018-09-04T14:09:50.296Z,97062.61
2018-09-04T14:12:16.801Z,97064.99
2018-09-04T14:14:44.141Z,97065.45
2018-09-04T14:17:11.311Z,97056.64
2018-09-04T14:19:37.843Z,97056.27
2018-09-04T14:24:36.605Z,97066.23
2018-09-04T14:27:03.105Z,97062.60
2018-09-04T14:31:57.883Z,97063.08
2018-09-04T14:34:25.210Z,97065.30
2018-09-04T14:36:53.060Z,97066.88
2018-09-04T14:39:20.159Z,97063.84
2018-09-04T14:41:47.458Z,97071.53
2018-09-04T14:44:15.553Z,97067.71
2018-09-04T14:46:42.615Z,97060.89
2018-09-04T14:49:09.551Z,97070.23
2018-09-04T14:51:36.082Z,97067.37
2018-09-04T14:54:02.758Z,97069.73
2018-09-04T14:56:29.223Z,97075.88
2018-09-04T14:58:55.732Z,97072.81
2018-09-04T15:01:22.226Z,97082.61
2018-09-04T15:03:48.679Z,97087.06
2018-09-04T15:06:15.899Z,97090.99
2018-09-04T15:08:42.578Z,97095.17
2018-09-04T15:11:09.225Z,97096.18
2018-09-04T15:13:35.725Z,97095.78
2018-09-04T15:16:02.237Z,97095.28
2018-09-04T15:18:29.487Z,97101.88
2018-09-04T15:20:56.719Z,97099.17
2018-09-04T15:23:23.466Z,97106.91
2018-09-04T15:25:50.696Z,97108.44
2018-09-04T15:28:19.914Z,97105.47
2018-09-04T15:30:46.664Z,97113.89
2018-09-04T15:33:13.506Z,97115.28
2018-09-04T15:35:42.055Z,97119.81
2018-09-04T15:38:09.441Z,97126.78
2018-09-04T15:40:36.616Z,97127.37
2018-09-04T15:43:03.208Z,97129.38
2018-09-04T15:45:29.749Z,97125.45
2018-09-04T15:47:57.291Z,97124.95
2018-09-04T15:50:24.797Z,97122.36
2018-09-04T15:52:52.298Z,97122.56
2018-09-04T15:55:19.653Z,97121.17
2018-09-04T15:57:46.898Z,97123.99
2018-09-04T16:00:13.387Z,97128.99
2018-09-04T16:02:39.925Z,97129.15
2018-09-04T16:05:06.718Z,97131.34
2018-09-04T16:07:33.320Z,97133.79
2018-09-04T16:10:00.637Z,97133.52
2018-09-04T16:12:27.376Z,97127.95
2018-09-04T16:14:54.130Z,97136.86
2018-09-04T16:17:22.652Z,97134.22
2018-09-04T16:19:49.390Z,97136.49
2018-09-04T16:22:17.910Z,97137.91
2018-09-04T16:24:45.298Z,97139.50
2018-09-04T16:27:12.814Z,97137.59
2018-09-04T16:29:39.318Z,97139.53
2018-09-04T16:32:06.116Z,97134.52
2018-09-04T16:34:32.734Z,97131.92
2018-09-04T16:36:59.494Z,97141.11
2018-09-04T16:39:26.804Z,97145.42
2018-09-04T16:41:53.435Z,97146.48
2018-09-04T16:44:21.323Z,97156.59
2018-09-04T16:46:48.133Z,97152.27
2018-09-04T16:49:17.584Z,97155.95
2018-09-04T16:51:44.105Z,97156.59
2018-09-04T16:54:11.432Z,97151.81
2018-09-04T16:56:37.919Z,97153.66
2018-09-04T16:59:04.512Z,97146.63
2018-09-04T17:01:30.992Z,97145.21
2018-09-04T17:03:58.479Z,97145.10
2018-09-04T17:06:25.243Z,97147.97
2018-09-04T17:08:52.833Z,97151.23
2018-09-04T17:11:19.342Z,97148.76
2018-09-04T17:13:47.056Z,97160.95
2018-09-04T17:16:13.824Z,97163.75
2018-09-04T17:18:41.733Z,97161.98
2018-09-04T17:21:08.209Z,97166.73
2018-09-04T17:23:34.708Z,97164.81
2018-09-04T17:26:01.811Z,97166.16
2018-09-04T17:31:00.660Z,97166.72
2018-09-04T17:33:27.891Z,97167.66
2018-09-04T17:35:55.331Z,97172.28
2018-09-04T17:38:26.382Z,97176.09
2018-09-04T17:40:54.290Z,97179.03
2018-09-04T17:43:21.474Z,97176.87
2018-09-04T17:45:48.978Z,97186.83
2018-09-04T17:48:15.530Z,97192.48
2018-09-04T17:50:42.644Z,97184.95
2018-09-04T17:53:10.965Z,97190.06
2018-09-04T17:55:38.088Z,97195.91
2018-09-04T17:58:04.544Z,97194.34
2018-09-04T18:00:31.031Z,97196.23
2018-09-04T18:02:57.514Z,97201.70
2018-09-04T18:05:24.069Z,97202.11
2018-09-04T18:07:53.736Z,97216.34
2018-09-04T18:10:21.911Z,97216.02
2018-09-04T18:12:49.277Z,97209.98
2018-09-04T18:15:17.447Z,97226.93
2018-09-04T18:17:46.610Z,97229.98
2018-09-04T18:20:14.385Z,97238.34
2018-09-04T18:27:45.509Z,97248.76
2018-09-04T18:30:14.162Z,97250.53
2018-09-04T18:32:44.839Z,97249.09
2018-09-04T18:35:15.199Z,97247.48
2018-09-04T18:37:42.370Z,97253.80
2018-09-04T18:42:44.635Z,97254.14
2018-09-04T18:45:11.261Z,97261.95
2018-09-04T18:47:40.701Z,97269.27
2018-09-04T18:50:08.574Z,97271.41
2018-09-04T18:52:39.309Z,97265.78
2018-09-04T18:55:10.245Z,97263.64
2018-09-04T18:57:39.074Z,97264.99
2018-09-04T19:00:07.245Z,97267.39
2018-09-04T19:02:34.640Z,97259.63
2018-09-04T19:05:01.473Z,97260.67
2018-09-04T19:07:30.468Z,97255.06
2018-09-04T19:09:59.296Z,97250.98
2018-09-04T19:12:25.829Z,97257.45
2018-09-04T19:14:54.459Z,97252.66
2018-09-04T19:17:25.233Z,97261.22
2018-09-04T19:19:55.472Z,97266.62
2018-09-04T19:22:25.712Z,97266.61
2018-09-04T19:24:56.821Z,97267.15
2018-09-04T19:27:25.500Z,97266.05
2018-09-04T19:29:54.726Z,97268.76
2018-09-04T19:32:25.618Z,97273.58
2018-09-04T19:34:55.382Z,97270.35
2018-09-04T19:37:23.231Z,97262.57
2018-09-04T19:39:53.894Z,97271.16
2018-09-04T19:42:22.519Z,97276.73
2018-09-04T19:44:51.693Z,97278.09
2018-09-04T19:52:29.007Z,97258.56
2018-09-04T19:54:55.669Z,97251.86
2018-09-04T19:57:23.297Z,97257.20
2018-09-04T19:59:51.634Z,97263.10
2018-09-04T20:02:21.790Z,97267.29
2018-09-04T20:04:49.380Z,97265.13
2018-09-04T20:07:16.472Z,97260.09
2018-09-04T20:12:20.915Z,97263.79
2018-09-04T20:14:51.169Z,97263.52
2018-09-04T20:17:21.513Z,97266.71
2018-09-04T20:19:48.861Z,97254.72
2018-09-04T20:24:49.121Z,97268.26
2018-09-04T20:29:49.508Z,97259.49
2018-09-04T20:32:17.826Z,97266.41
2018-09-04T20:34:48.054Z,97270.51
2018-09-04T20:37:18.018Z,97270.73
2018-09-04T20:39:47.350Z,97274.43
2018-09-04T20:42:15.409Z,97277.84
2018-09-04T20:47:17.890Z,97270.34
2018-09-04T20:52:58.241Z,97276.83
2018-09-04T20:55:25.987Z,97275.52
2018-09-04T20:57:53.937Z,97275.85
2018-09-04T21:00:23.889Z,97281.20
2018-09-04T21:02:52.149Z,97283.06
2018-09-04T21:05:24.804Z,97292.39
2018-09-04T21:07:52.569Z,97288.35
2018-09-04T21:12:54.066Z,97292.20
2018-09-04T21:15:23.954Z,97294.08
2018-09-04T21:17:53.787Z,97289.36
2018-09-04T21:20:23.928Z,97294.73
2018-09-04T21:22:52.111Z,97293.13
2018-09-04T21:25:19.202Z,97287.75
2018-09-04T21:27:46.676Z,97289.33
2018-09-04T21:30:14.066Z,97287.22
2018-09-04T21:32:41.916Z,97285.58
2018-09-04T21:35:09.328Z,97284.27
2018-09-04T21:37:35.817Z,97281.52
2018-09-04T21:40:04.158Z,97278.30
2018-09-04T21:42:31.683Z,97273.82
2018-09-04T21:44:58.947Z,97282.64
2018-09-04T21:47:25.414Z,97274.81
2018-09-04T21:49:53.432Z,97268.19
2018-09-04T21:52:20.892Z,97268.98
2018-09-04T21:54:48.838Z,97271.95
2018-09-04T21:57:16.578Z,97278.10
2018-09-04T21:59:44.211Z,97278.09
2018-09-04T22:02:11.411Z,97274.11
2018-09-04T22:04:40.432Z,97279.44
2018-09-04T22:07:07.020Z,97291.23
2018-09-04T22:09:34.368Z,97292.02
2018-09-04T22:14:33.720Z,97302.00
2018-09-04T22:17:01.982Z,97312.15
2018-09-04T22:19:29.290Z,97313.01
2018-09-04T22:21:56.492Z,97323.13
2018-09-04T22:24:23.719Z,97312.67
2018-09-04T22:26:51.034Z,97317.80
2018-09-04T22:29:18.410Z,97316.24
2018-09-04T22:31:44.955Z,97319.47
2018-09-04T22:34:12.106Z,97304.03
2018-09-04T22:36:40.322Z,97305.60
2018-09-04T22:39:07.482Z,97306.93
2018-09-04T22:41:34.834Z,97318.67
2018-09-04T22:44:03.224Z,97318.11
2018-09-04T22:46:31.507Z,97324.20
2018-09-04T22:48:58.810Z,97329.95
2018-09-04T22:51:26.835Z,97330.61
2018-09-04T22:53:53.945Z,97334.27
2018-09-04T22:56:22.339Z,97335.35
2018-09-04T22:58:49.455Z,97335.92
2018-09-04T23:01:17.086Z,97331.47
2018-09-04T23:03:45.644Z,97331.83
2018-09-04T23:06:13.580Z,97330.18
2018-09-04T23:08:42.692Z,97326.91
2018-09-04T23:11:10.671Z,97328.36
2018-09-04T23:13:38.360Z,97335.34
2018-09-04T23:16:05.707Z,97340.23
2018-09-04T23:18:33.503Z,97342.34
2018-09-04T23:21:01.922Z,97339.27
2018-09-04T23:23:28.982Z,97327.72
2018-09-04T23:25:55.800Z,97319.89
2018-09-04T23:28:24.359Z,97316.41
2018-09-04T23:30:50.932Z,97310.48
2018-09-04T23:33:20.578Z,97310.59
2018-09-04T23:35:49.131Z,97307.19
2018-09-04T23:38:15.774Z,97309.34
2018-09-04T23:40:42.535Z,97312.66
2018-09-04T23:43:09.159Z,97311.69
2018-09-04T23:45:35.954Z,97311.25
2018-09-04T23:48:04.453Z,97305.50
2018-09-04T23:50:31.755Z,97312.23
2018-09-04T23:52:59.336Z,97308.07
2018-09-04T23:55:27.976Z,97309.44
2018-09-04T23:57:55.065Z,97312.55
